EBCI - Charleroi/Gosselies, Belgium
Distance de la station: NE 18km
Mise à jour: 29/02/2024 13:20
Light drizzle, Pluie, plutôt nuageux
Light drizzle, Pluie, plutôt nuageux
 Wind from S
Vent: S 22 km/h
Température: 7°C
Température ressentie: 4°C
Point de rosée: 5°C
Humidité: 87%
Baromètre: 1009 hPa
Résumé: Light drizzle, Pluie
Ciel: plutôt nuageux
Visibilité: 10 km
Détails du ciel: partiellement nuageux 152 m
plutôt nuageux 244 m
2024/02/29 12:20 EBCI 291220Z 17012KT 9999 -DZRA SCT005 BKN008 07/05 Q1009 TEMPO 3000 DZRA BR BKN004
EBFS - Florennes, Belgium
Distance de la station: ESE 31km
Mise à jour: 29/02/2024 13:33
couvert
couvert
 Wind from S
Vent: S 22 km/h
Température: 7°C
Température ressentie: 4°C
Point de rosée: 5°C
Humidité: 87%
Baromètre: 1009 hPa
Ciel: couvert
Visibilité: 10 km
Détails du ciel: plutôt nuageux 244 m
couvert 274 m
2024/02/29 12:33 EBFS 291233Z 17012KT 9999 BKN008 OVC009 07/05 Q1009 GRN GRN
EBCV - Chievres, Belgium
Distance de la station: NO 40km
Mise à jour: 29/02/2024 13:25
brume, plutôt nuageux
brume, plutôt nuageux
 Wind from S
Vent: S 20 km/h
Température: 8°C
Température ressentie: 4°C
Point de rosée: 7°C
Humidité: 93%
Baromètre: 1008 hPa
Résumé: brume
Ciel: plutôt nuageux
Visibilité: 5 km
Détails du ciel: partiellement nuageux 183 m
plutôt nuageux 274 m
plutôt nuageux 3353 m
2024/02/29 12:25 EBCV 291225Z AUTO 17011KT 4700 BR SCT006/// BKN009/// BKN110/// 08/07 Q1008 YLO
 
EBBE - Beauvechain, Belgium
Distance de la station: NE 57km
Mise à jour: 29/02/2024 13:25
plutôt nuageux
plutôt nuageux
 Wind from S
Vent: S 26 km/h
Température: 9°C
Température ressentie: 6°C
Point de rosée: 7°C
Humidité: 87%
Baromètre: 1008 hPa
Ciel: plutôt nuageux
Visibilité: 10 km
Détails du ciel: quelques nuages 274 m
plutôt nuageux 396 m
2024/02/29 12:25 EBBE 291225Z 18014KT 9999 FEW009 BKN013 09/07 Q1008 GRN GRN
EBBR - Brussels National, Belgium
Distance de la station: NNE 63km
Mise à jour: 29/02/2024 13:20
pluie légère, plutôt nuageux
pluie légère, plutôt nuageux
 Wind from S
Vent: S 24 km/h
Température: 8°C
Température ressentie: 4°C
Point de rosée: 7°C
Humidité: 93%
Baromètre: 1008 hPa
Résumé: pluie légère
Ciel: plutôt nuageux
Visibilité: 9 km
Détails du ciel: plutôt nuageux 244 m
2024/02/29 12:20 EBBR 291220Z 18013KT 9000 -RA BKN008 08/07 Q1008 TEMPO 3500 -RADZ
LFQI - Cambrai/Epinoy, France
Distance de la station: O 82km
Mise à jour: 29/06/2012 12:30
NOT Current

 Wind from SO
Vent: SO 17 km/h
Température: 18°C
Point de rosée: 14°C
Humidité: 78%
Baromètre: 1009 hPa
2012/06/29 10:30 LFQI 291030Z AUTO 22009KT //// // ///////// 18/14 Q1009
 
LFQQ - Lille/Lesquin, France
Distance de la station: ONO 86km
Mise à jour: 29/02/2024 13:30
pluie légère, couvert
pluie légère, couvert
 Wind from SSE
Vent: SSE 24 km/h
Température: 9°C
Température ressentie: 6°C
Point de rosée: 8°C
Humidité: 94%
Baromètre: 1007 hPa
Résumé: pluie légère
Ciel: couvert
Visibilité: 10 km
Détails du ciel: couvert 183 m
2024/02/29 12:30 LFQQ 291230Z AUTO 16013KT 9999 -RA OVC006 09/08 Q1007 TEMPO 2000 RADZ OVC004
EBLG - Bierset/Liege, Belgium
Distance de la station: ENE 89km
Mise à jour: 29/02/2024 13:20
Light drizzle, Pluie, plutôt nuageux
Light drizzle, Pluie, plutôt nuageux
 Wind from S
Vent: S 22 km/h
Température: 8°C
Température ressentie: 4°C
Point de rosée: 4°C
Humidité: 76%
Baromètre: 1010 hPa
Résumé: Light drizzle, Pluie
Ciel: plutôt nuageux
Visibilité: 10 km
Détails du ciel: plutôt nuageux 610 m
2024/02/29 12:20 EBLG 291220Z 17012KT 9999 -DZRA BKN020 08/04 Q1010 NOSIG
EBDT - Schaffen, Belgium
Distance de la station: NE 93km
Mise à jour: 29/02/2024 13:25
pluie légère, couvert
pluie légère, couvert
 Wind from S
Vent: S 20 km/h
Température: 9°C
Température ressentie: 6°C
Point de rosée: 7°C
Humidité: 87%
Baromètre: 1009 hPa
Résumé: pluie légère
Ciel: couvert
Visibilité: 10 km
Détails du ciel: couvert 488 m
2024/02/29 12:25 EBDT 291225Z AUTO 18011KT 9999 -RA OVC016/// 09/07 Q1009 WHT
 
EBAW - Antwerp/Deurne, Belgium
Distance de la station: N 96km
Mise à jour: 29/02/2024 13:20
Light drizzle, plutôt nuageux
Light drizzle, plutôt nuageux
 Wind from S
Vent: S 17 km/h
Température: 8°C
Température ressentie: 5°C
Point de rosée: 7°C
Humidité: 93%
Baromètre: 1008 hPa
Résumé: Light Drizzle
Ciel: plutôt nuageux
Visibilité: 6 km
Détails du ciel: quelques nuages 122 m
plutôt nuageux 183 m
2024/02/29 12:20 EBAW 291220Z 17009KT 6000 -DZ FEW004 BKN006 08/07 Q1008 TEMPO 2500 DZ
LFAQ - Bray, France
Distance de la station: OSO 119km
Mise à jour: 29/02/2024 13:30
pluie légère, Thunderstorm
pluie légère, Thunderstorm
 Wind from S
Vent: S 20 km/h
Température: 9°C
Température ressentie: 6°C
Point de rosée: 8°C
Humidité: 94%
Baromètre: 1007 hPa
Résumé: pluie légère
Ciel: Thunderstorm
Visibilité: 10 km
Détails du ciel: couvert 152 m
2024/02/29 12:30 LFAQ 291230Z AUTO 18011KT 9999 -RA OVC005/// ///TCU 09/08 Q1007 TEMPO 1600 RADZ OVC004
LFSR - Reims/Champagne, France
Distance de la station: S 120km
Mise à jour: 16/04/2012 09:00
NOT Current
partiellement nuageux
partiellement nuageux
 Wind from N
Vent: N 17 km/h
Température: 4°C
Température ressentie: 0°C
Point de rosée: 0°C
Humidité: 75%
Baromètre: 1022 hPa
Ciel: partiellement nuageux
Visibilité: 10 km
2012/04/16 07:00 LFSR 160700Z AUTO 01009KT 340V070 9999 NSC 04/00 Q1022
 
EHWO - Woensdrecht, Netherlands
Distance de la station: N 122km
Mise à jour: 29/02/2024 13:30
Light drizzle, Pluie, plutôt nuageux
Light drizzle, Pluie, plutôt nuageux
 Wind from S
Vent: S 13 km/h
Température: 9°C
Température ressentie: 7°C
Point de rosée: 8°C
Humidité: 94%
Baromètre: 1007 hPa
Résumé: Light drizzle, Pluie
Ciel: plutôt nuageux
Visibilité: 5 km
Détails du ciel: quelques nuages 122 m
partiellement nuageux 152 m
plutôt nuageux 183 m
2024/02/29 12:30 EHWO 291230Z AUTO 18007KT 140V220 5000 -DZRA FEW004 SCT005 BKN006 09/08 Q1007 YLO TEMPO 2500 -DZRA FEW003 SCT004 BKN006
EHBK - Zuid-Limburg, Netherlands
Distance de la station: ENE 123km
Mise à jour: 29/02/2024 13:25
partiellement nuageux
partiellement nuageux
 Wind from S
Vent: S 19 km/h
Température: 9°C
Température ressentie: 6°C
Point de rosée: 6°C
Humidité: 82%
Baromètre: 1010 hPa
Ciel: partiellement nuageux
Visibilité: 10 km
Détails du ciel: quelques nuages 945 m
partiellement nuageux 1311 m
2024/02/29 12:25 EHBK 291225Z AUTO 18010KT 140V210 9999 FEW031 SCT043 09/06 Q1010 NOSIG
EBBL - Kleine-Brogel, Belgium
Distance de la station: NE 124km
Mise à jour: 29/02/2024 13:25
pluie légère, plutôt nuageux
pluie légère, plutôt nuageux
 Wind from S
Vent: S 9 km/h
Température: 10°C
Température ressentie: 9°C
Point de rosée: 7°C
Humidité: 82%
Baromètre: 1009 hPa
Résumé: pluie légère
Ciel: plutôt nuageux
Visibilité: 10 km
Détails du ciel: plutôt nuageux 549 m
2024/02/29 12:25 EBBL 291225Z 19005KT 9999 -RA BKN018 10/07 Q1009 WHT WHT TEMPO GRN
 
EBLB - Elsenborn, Belgium
Distance de la station: E 135km
Mise à jour: 29/02/2024 10:25
NOT Current
couvert
couvert
 Wind from SSO
Vent: SSO 9 km/h
Température: 2°C
Température ressentie: -1°C
Point de rosée: 1°C
Humidité: 93%
Baromètre: 1012 hPa
Ciel: couvert
Visibilité: 10 km
Détails du ciel: couvert 152 m
2024/02/29 09:25 EBLB 290925Z AUTO 20005KT 9999 OVC005/// 02/01 Q1012 YLO
EBOS - Oostende Airport, Belgium
Distance de la station: NO 136km
Mise à jour: 29/02/2024 13:20
plutôt nuageux
plutôt nuageux
 Wind from S
Vent: S 30 km/h
Température: 10°C
Température ressentie: 7°C
Point de rosée: 9°C
Humidité: 94%
Baromètre: 1006 hPa
Ciel: plutôt nuageux
Visibilité: 10 km
Détails du ciel: partiellement nuageux 122 m
plutôt nuageux 152 m
2024/02/29 12:20 EBOS 291220Z 17016KT 9999 SCT004 BKN005 10/09 Q1006 TEMPO 4500 -DZ
EBFN - Koksijde, Belgium
Distance de la station: NO 140km
Mise à jour: 29/02/2024 13:25
Light drizzle, couvert
Light drizzle, couvert
 Wind from S
Vent: S 22 km/h
Température: 10°C
Température ressentie: 7°C
Point de rosée: 9°C
Humidité: 94%
Baromètre: 1006 hPa
Résumé: Light Drizzle
Ciel: couvert
Visibilité: 4 km
Détails du ciel: plutôt nuageux 152 m
couvert 213 m
2024/02/29 12:25 EBFN 291225Z 17012KT 3700 -DZ BKN005 OVC007 10/09 Q1006 YLO GRN TEMPO YLO
 
ETNG - Geilenkirchen, Germany
Distance de la station: ENE 142km
Mise à jour: 29/02/2024 13:20
pluie légère, plutôt nuageux
pluie légère, plutôt nuageux
 Wind from S
Vent: S 13 km/h
Température: 10°C
Température ressentie: 8°C
Point de rosée: 4°C
Humidité: 67%
Baromètre: 1010 hPa
Résumé: pluie légère
Ciel: plutôt nuageux
Visibilité: 10 km
Détails du ciel: plutôt nuageux 1372 m
2024/02/29 12:20 ETNG 291220Z 19007KT 9999 -RA BKN045 10/04 Q1010 BECMG NSW
EHGR - Gilze-Rijen, Netherlands
Distance de la station: NNE 143km
Mise à jour: 29/02/2024 13:25
Drizzle, couvert
Drizzle, couvert
 Wind from S
Vent: S 20 km/h
Température: 9°C
Température ressentie: 6°C
Point de rosée: 8°C
Humidité: 94%
Baromètre: 1008 hPa
Résumé: Drizzle
Ciel: couvert
Visibilité: 3 km
Détails du ciel: partiellement nuageux 122 m
plutôt nuageux 152 m
couvert 213 m
2024/02/29 12:25 EHGR 291225Z AUTO 18011KT 140V230 3400 R28/P3000U DZ SCT004 BKN005 OVC007 09/08 Q1008 YLO TEMPO 3000 BR DZRA SCT003 BKN005 BKN007
EHEH - Eindhoven, Netherlands
Distance de la station: NNE 147km
Mise à jour: 29/02/2024 13:35
Drizzle, couvert
Drizzle, couvert
 Wind from S
Vent: S 17 km/h
Température: 10°C
Température ressentie: 8°C
Point de rosée: 7°C
Humidité: 82%
Baromètre: 1009 hPa
Résumé: Drizzle
Ciel: couvert
Visibilité: 10 km
Détails du ciel: quelques nuages 366 m
couvert 457 m
2024/02/29 12:35 EHEH 291235Z AUTO 18009KT 140V230 9999 DZ FEW012 OVC015 10/07 Q1009 WHT TEMPO 4000 -DZRA SCT007 BKN009 OVC011
 
ELLX - Luxembourg, Luxembourg
Distance de la station: ESE 162km
Mise à jour: 29/02/2024 13:20
quelques nuages
quelques nuages
 Wind from S
Vent: S 13 km/h
Température: 5°C
Température ressentie: 2°C
Point de rosée: 2°C
Humidité: 81%
Baromètre: 1012 hPa
Ciel: quelques nuages
Visibilité: 10 km
Détails du ciel: quelques nuages 152 m
2024/02/29 12:20 ELLX 291220Z 18007KT 130V210 9999 FEW005 05/02 Q1012 NOSIG
EHVK - Volkel, Netherlands
Distance de la station: NE 174km
Mise à jour: 29/02/2024 13:25
pluie légère, couvert
pluie légère, couvert
 Wind from S
Vent: S 19 km/h
Température: 10°C
Température ressentie: 7°C
Point de rosée: 7°C
Humidité: 82%
Baromètre: 1009 hPa
Résumé: pluie légère
Ciel: couvert
Visibilité: 10 km
Détails du ciel: couvert 488 m
2024/02/29 12:25 EHVK 291225Z AUTO 18010KT 140V200 9999 -RA OVC016 10/07 Q1009 RERA REDZ WHT TEMPO 4500 RADZ SCT012 BKN014
LFOK - Chalons/Vatry, France
Distance de la station: S 174km
Mise à jour: 29/02/2024 13:30
couvert
couvert
 Wind from S
Vent: S 31 km/h
Température: 10°C
Température ressentie: 7°C
Point de rosée: 7°C
Humidité: 82%
Baromètre: 1010 hPa
Ciel: couvert
Visibilité: 10 km
Détails du ciel: plutôt nuageux 518 m
couvert 792 m
2024/02/29 12:30 LFOK 291230Z AUTO 19017KT 9999 BKN017 OVC026 10/07 Q1010 TEMPO 4000 RADZ BKN013
Script from Saratoga-Weather.org